Time;durP1;ratioP1;P1;durP2;ratioP2;P2;SDS_P1;SDS_P2;PMS_P1;PMS_P2;Temp;Humidity;BMP_temperature;BMP_pressure;BME280_temperature;BME280_humidity;BME280_pressure;Samples;Min_cycle;Max_cycle;Signal;HPM_P1;HPM_P2
2024/02/10 00:00:15;;;;;;;7.43;3.78;;;6.30;99.90;;;;;;5045811;28;20029;-70
2024/02/10 00:02:41;;;;;;;7.38;3.50;;;6.40;99.90;;;;;;5050202;28;20454;-69
2024/02/10 00:05:07;;;;;;;8.18;3.63;;;6.30;99.90;;;;;;5046756;28;20033;-70
2024/02/10 00:07:32;;;;;;;7.45;3.60;;;6.40;99.90;;;;;;5045592;28;20039;-70
2024/02/10 00:09:59;;;;;;;8.10;3.97;;;6.40;99.90;;;;;;5044920;28;20044;-69
2024/02/10 00:12:24;;;;;;;6.57;3.53;;;6.40;99.90;;;;;;5046833;28;20457;-69
2024/02/10 00:14:51;;;;;;;9.10;4.10;;;6.40;99.90;;;;;;5042983;28;20032;-70
2024/02/10 00:17:16;;;;;;;7.10;3.83;;;6.40;99.90;;;;;;5047343;28;20029;-69
2024/02/10 00:19:46;;;;;;;7.40;4.05;;;6.30;99.90;;;;;;5048372;28;20112;-70
2024/02/10 00:22:12;;;;;;;6.90;3.63;;;6.40;99.90;;;;;;5050370;28;20033;-70
2024/02/10 00:24:38;;;;;;;10.15;4.50;;;6.40;99.90;;;;;;5048364;28;20039;-70
2024/02/10 00:27:04;;;;;;;7.72;3.65;;;6.40;99.90;;;;;;5043582;28;20020;-69
2024/02/10 00:29:33;;;;;;;7.28;3.30;;;6.40;99.90;;;;;;5049331;28;20424;-70
2024/02/10 00:31:58;;;;;;;7.13;3.90;;;6.40;99.90;;;;;;5049067;28;20025;-69
2024/02/10 00:34:29;;;;;;;7.00;3.17;;;6.40;99.90;;;;;;5046313;28;20397;-69
2024/02/10 00:36:55;;;;;;;8.90;4.15;;;6.40;99.90;;;;;;5047581;28;20412;-69
2024/02/10 00:39:20;;;;;;;8.10;4.22;;;6.40;99.90;;;;;;5047744;28;20033;-69
2024/02/10 00:41:46;;;;;;;10.00;4.55;;;6.50;99.90;;;;;;5043877;28;20091;-69
2024/02/10 00:44:12;;;;;;;9.18;4.10;;;6.50;99.90;;;;;;5043934;28;20418;-69
2024/02/10 00:46:38;;;;;;;8.13;3.88;;;6.50;99.90;;;;;;5046534;28;20531;-69
2024/02/10 00:49:04;;;;;;;13.82;4.85;;;6.50;99.90;;;;;;5043442;28;20121;-70
2024/02/10 00:51:30;;;;;;;7.78;3.70;;;6.60;99.90;;;;;;5042187;28;20383;-70
2024/02/10 00:53:56;;;;;;;8.98;4.38;;;6.60;99.90;;;;;;5045374;28;20048;-70
2024/02/10 00:56:21;;;;;;;10.05;4.55;;;6.60;99.90;;;;;;5044581;28;20080;-70
2024/02/10 00:58:48;;;;;;;9.75;5.38;;;6.60;99.90;;;;;;5030214;28;20040;-69
2024/02/10 01:01:14;;;;;;;11.10;4.97;;;6.60;99.90;;;;;;5049951;28;20024;-69
2024/02/10 01:03:44;;;;;;;7.82;4.10;;;6.50;99.90;;;;;;5047094;28;20083;-70
2024/02/10 01:06:11;;;;;;;8.48;4.60;;;6.50;99.90;;;;;;5048655;28;20056;-70
2024/02/10 01:08:37;;;;;;;9.00;4.03;;;6.50;99.90;;;;;;5049268;28;20044;-70
2024/02/10 01:11:04;;;;;;;8.00;4.22;;;6.40;99.90;;;;;;5047138;28;20069;-70
2024/02/10 01:13:30;;;;;;;8.93;4.25;;;6.30;99.90;;;;;;5047034;28;20161;-70
2024/02/10 01:15:55;;;;;;;7.78;4.13;;;6.40;99.90;;;;;;5044700;28;20124;-69
2024/02/10 01:18:21;;;;;;;10.10;4.00;;;6.30;99.90;;;;;;5029722;28;20127;-67
2024/02/10 01:20:46;;;;;;;9.15;4.53;;;6.30;99.90;;;;;;5047148;28;20383;-68
2024/02/10 01:23:12;;;;;;;10.65;4.60;;;6.30;99.90;;;;;;5046120;28;20106;-70
2024/02/10 01:25:37;;;;;;;10.15;4.25;;;6.40;99.90;;;;;;5045172;28;20057;-69
2024/02/10 01:28:03;;;;;;;7.95;3.80;;;6.40;99.90;;;;;;5044306;28;20423;-68
2024/02/10 01:30:28;;;;;;;7.55;3.58;;;6.40;99.90;;;;;;5048131;28;20199;-67
2024/02/10 01:32:57;;;;;;;8.18;4.47;;;6.40;99.90;;;;;;5044843;28;20028;-68
2024/02/10 01:35:23;;;;;;;8.40;4.18;;;6.40;99.90;;;;;;5040638;28;20044;-68
2024/02/10 01:37:49;;;;;;;8.55;3.80;;;6.40;99.90;;;;;;5029974;28;20029;-68
2024/02/10 01:40:16;;;;;;;6.40;3.50;;;6.30;99.90;;;;;;5048221;28;20077;-68
2024/02/10 01:42:44;;;;;;;9.93;4.82;;;6.30;99.90;;;;;;5045004;28;20496;-68
2024/02/10 01:45:14;;;;;;;8.68;4.47;;;6.40;99.90;;;;;;5048510;28;20095;-68
2024/02/10 01:47:43;;;;;;;7.40;3.30;;;6.40;99.90;;;;;;5046300;28;20050;-68
2024/02/10 01:50:10;;;;;;;8.27;4.63;;;6.40;99.90;;;;;;5043878;28;20036;-68
2024/02/10 01:52:37;;;;;;;8.30;3.75;;;6.30;99.90;;;;;;5044548;28;20033;-68
2024/02/10 01:55:09;;;;;;;8.75;4.05;;;6.40;99.90;;;;;;5045442;28;20041;-68
2024/02/10 01:57:34;;;;;;;9.20;4.20;;;6.30;99.90;;;;;;5036544;28;20032;-67
2024/02/10 02:00:01;;;;;;;7.80;4.00;;;6.30;99.90;;;;;;5047622;28;20364;-68
2024/02/10 02:02:31;;;;;;;8.52;4.28;;;6.30;99.90;;;;;;5051101;28;20040;-68
2024/02/10 02:05:04;;;;;;;7.78;4.03;;;6.30;99.90;;;;;;5047105;28;20041;-68
2024/02/10 02:07:31;;;;;;;7.65;4.07;;;6.30;99.90;;;;;;5045094;28;20036;-68
2024/02/10 02:10:00;;;;;;;9.30;3.97;;;6.30;99.90;;;;;;5046113;28;20232;-68
2024/02/10 02:12:27;;;;;;;9.55;4.20;;;6.30;99.90;;;;;;5043803;28;20122;-68
2024/02/10 02:14:54;;;;;;;7.32;3.88;;;6.30;99.90;;;;;;5048779;28;20052;-68
2024/02/10 02:17:20;;;;;;;10.43;4.20;;;6.30;99.90;;;;;;5052980;28;20032;-68
2024/02/10 02:19:45;;;;;;;7.78;3.92;;;6.30;99.90;;;;;;5053682;28;20029;-69
2024/02/10 02:22:13;;;;;;;8.98;3.95;;;6.30;99.90;;;;;;5049482;28;20051;-68
2024/02/10 02:24:38;;;;;;;9.70;4.05;;;6.20;99.90;;;;;;5047917;28;20136;-69
2024/02/10 02:27:06;;;;;;;9.18;4.38;;;6.20;99.90;;;;;;5047548;28;20112;-68
2024/02/10 02:29:32;;;;;;;7.88;4.00;;;6.20;99.90;;;;;;5047955;28;20025;-68
2024/02/10 02:32:00;;;;;;;7.00;3.90;;;6.20;99.90;;;;;;5052057;28;20051;-68
2024/02/10 02:34:33;;;;;;;7.65;3.58;;;6.20;99.90;;;;;;5045611;28;20077;-68
2024/02/10 02:37:03;;;;;;;8.15;3.78;;;6.20;99.90;;;;;;5047089;28;20077;-69
2024/02/10 02:39:30;;;;;;;8.60;3.72;;;6.20;99.90;;;;;;5046451;28;20032;-68
2024/02/10 02:41:59;;;;;;;7.25;3.63;;;6.30;99.90;;;;;;5053475;28;20068;-67
2024/02/10 02:44:28;;;;;;;8.63;4.00;;;6.20;99.90;;;;;;5051434;28;20032;-68
2024/02/10 02:46:54;;;;;;;7.68;4.00;;;6.20;99.90;;;;;;5047239;28;20108;-69
2024/02/10 02:49:23;;;;;;;7.30;4.00;;;6.30;99.90;;;;;;5049566;28;20528;-69
2024/02/10 02:51:49;;;;;;;6.50;3.50;;;6.10;99.90;;;;;;5053627;28;20025;-69
2024/02/10 02:54:15;;;;;;;7.32;4.18;;;6.10;99.90;;;;;;5045349;28;20029;-69
2024/02/10 02:56:44;;;;;;;7.85;4.13;;;6.20;99.90;;;;;;5050064;28;20067;-68
2024/02/10 02:59:13;;;;;;;9.40;3.78;;;6.20;99.90;;;;;;5048178;28;20177;-68
2024/02/10 03:01:40;;;;;;;9.27;3.97;;;6.20;99.90;;;;;;5048748;28;20033;-69
2024/02/10 03:04:06;;;;;;;7.22;3.58;;;6.20;99.90;;;;;;5049157;28;20025;-70
2024/02/10 03:06:32;;;;;;;9.93;3.83;;;6.20;99.90;;;;;;5052184;28;20040;-68
2024/02/10 03:08:58;;;;;;;7.82;3.38;;;6.30;99.90;;;;;;5049413;28;20032;-69
2024/02/10 03:11:26;;;;;;;11.18;4.35;;;6.20;99.90;;;;;;5047000;28;20039;-68
2024/02/10 03:13:52;;;;;;;5.72;3.30;;;6.20;99.90;;;;;;5047499;28;20025;-68
2024/02/10 03:16:19;;;;;;;9.50;4.65;;;6.30;99.90;;;;;;5058863;28;21009;-69
2024/02/10 03:18:45;;;;;;;6.57;3.33;;;6.30;99.90;;;;;;5033872;28;20025;-69
2024/02/10 03:21:15;;;;;;;7.07;4.05;;;6.30;99.90;;;;;;5046575;28;20045;-69
2024/02/10 03:23:41;;;;;;;6.55;3.90;;;6.30;99.90;;;;;;5051923;28;20029;-68
2024/02/10 03:26:07;;;;;;;9.38;4.35;;;6.40;99.90;;;;;;5028521;28;20102;-69
2024/02/10 03:28:34;;;;;;;7.70;4.07;;;6.40;99.90;;;;;;5046568;28;20035;-68
2024/02/10 03:31:04;;;;;;;6.68;3.92;;;6.40;99.90;;;;;;5047087;28;20037;-69
2024/02/10 03:33:34;;;;;;;7.60;3.95;;;6.40;99.90;;;;;;5041030;28;20087;-69
2024/02/10 03:36:00;;;;;;;7.47;3.67;;;6.30;99.90;;;;;;5050502;28;20036;-68
2024/02/10 03:38:27;;;;;;;9.98;4.45;;;6.30;99.90;;;;;;5050235;28;20473;-68
2024/02/10 03:40:53;;;;;;;10.40;4.20;;;6.30;99.90;;;;;;5049885;28;20049;-68
2024/02/10 03:43:26;;;;;;;7.13;3.85;;;6.30;99.90;;;;;;5049692;28;20115;-68
2024/02/10 03:45:54;;;;;;;8.32;3.88;;;6.30;99.90;;;;;;5053695;28;20107;-69
2024/02/10 03:48:19;;;;;;;7.93;3.47;;;6.30;99.90;;;;;;5045852;28;20055;-68
2024/02/10 03:50:45;;;;;;;6.15;3.25;;;6.30;99.90;;;;;;5047805;28;20037;-69
2024/02/10 03:53:10;;;;;;;8.07;4.30;;;6.40;99.90;;;;;;5047431;28;20545;-69
2024/02/10 03:55:38;;;;;;;8.60;4.00;;;6.30;99.90;;;;;;5049404;28;20041;-68
2024/02/10 03:58:04;;;;;;;6.53;3.45;;;6.30;99.90;;;;;;5045850;28;20388;-69
2024/02/10 04:00:31;;;;;;;6.80;3.75;;;6.30;99.90;;;;;;5050940;28;20112;-69
2024/02/10 04:02:56;;;;;;;8.55;3.78;;;6.40;99.90;;;;;;5050700;28;20040;-68
2024/02/10 04:05:22;;;;;;;6.20;3.05;;;6.40;99.90;;;;;;5049256;28;20049;-68
2024/02/10 04:07:52;;;;;;;7.30;3.67;;;6.40;99.90;;;;;;5048353;28;20025;-68
2024/02/10 04:10:18;;;;;;;6.28;3.30;;;6.40;99.90;;;;;;5048566;28;20078;-68
2024/02/10 04:12:44;;;;;;;8.95;3.58;;;6.40;99.90;;;;;;5051760;28;20041;-68
2024/02/10 04:15:12;;;;;;;9.32;4.15;;;6.30;99.90;;;;;;5042967;28;20076;-68
2024/02/10 04:17:41;;;;;;;7.45;3.72;;;6.40;99.90;;;;;;5051236;28;20422;-68
2024/02/10 04:20:07;;;;;;;7.40;3.58;;;6.40;99.90;;;;;;5047245;28;20494;-68
2024/02/10 04:22:37;;;;;;;9.43;4.15;;;6.40;99.90;;;;;;5049188;28;20052;-68
2024/02/10 04:25:08;;;;;;;7.88;3.63;;;6.40;99.90;;;;;;5052109;28;20148;-68
2024/02/10 04:27:34;;;;;;;9.25;4.10;;;6.40;99.90;;;;;;5038490;28;20029;-68
2024/02/10 04:30:04;;;;;;;7.75;3.40;;;6.40;99.90;;;;;;5029666;28;20495;-68
2024/02/10 04:32:35;;;;;;;7.57;3.65;;;6.40;99.90;;;;;;5049043;28;20474;-68
2024/02/10 04:35:01;;;;;;;7.43;3.70;;;6.40;99.90;;;;;;5044688;28;20037;-68
2024/02/10 04:37:27;;;;;;;7.57;4.00;;;6.40;99.90;;;;;;5044846;28;20392;-68
2024/02/10 04:39:52;;;;;;;7.10;3.78;;;6.40;99.90;;;;;;5045053;28;20025;-67
2024/02/10 04:42:18;;;;;;;7.88;4.00;;;6.40;99.90;;;;;;5041206;28;20443;-68
2024/02/10 04:44:48;;;;;;;7.60;3.20;;;6.50;99.90;;;;;;5046771;28;20025;-68
2024/02/10 04:47:17;;;;;;;7.57;4.22;;;6.50;99.90;;;;;;5044229;28;20073;-68
2024/02/10 04:49:43;;;;;;;9.07;4.50;;;6.50;99.90;;;;;;5049308;28;20040;-68
2024/02/10 04:52:08;;;;;;;8.77;4.47;;;6.60;99.90;;;;;;5049159;28;20036;-69
2024/02/10 04:54:34;;;;;;;7.32;4.05;;;6.60;99.90;;;;;;5047754;28;20041;-69
2024/02/10 04:56:59;;;;;;;8.15;3.83;;;6.60;99.90;;;;;;5036915;28;20136;-69
2024/02/10 04:59:26;;;;;;;8.90;3.58;;;6.60;99.90;;;;;;5046756;28;20395;-68
2024/02/10 05:01:52;;;;;;;7.82;3.75;;;6.60;99.90;;;;;;5048266;28;20052;-68
2024/02/10 05:04:18;;;;;;;8.82;4.22;;;6.60;99.90;;;;;;5053569;28;20044;-68
2024/02/10 05:06:43;;;;;;;7.03;3.53;;;6.60;99.90;;;;;;5041932;28;20328;-69
2024/02/10 05:09:11;;;;;;;6.32;3.35;;;6.60;99.90;;;;;;5050168;28;20106;-68
2024/02/10 05:11:37;;;;;;;7.13;3.60;;;6.70;99.90;;;;;;5047526;28;20486;-69
2024/02/10 05:14:04;;;;;;;7.97;3.70;;;6.60;99.90;;;;;;5045418;28;20073;-68
2024/02/10 05:16:30;;;;;;;8.60;3.88;;;6.60;99.90;;;;;;5047357;28;20056;-68
2024/02/10 05:18:56;;;;;;;8.30;3.53;;;6.60;99.90;;;;;;5045162;28;20029;-68
2024/02/10 05:21:24;;;;;;;7.32;4.00;;;6.60;99.90;;;;;;5043415;28;20033;-69
2024/02/10 05:23:50;;;;;;;6.80;3.90;;;6.60;99.90;;;;;;5048640;28;20033;-69
2024/02/10 05:26:18;;;;;;;7.60;3.53;;;6.60;99.90;;;;;;5051329;28;20063;-69
2024/02/10 05:28:44;;;;;;;8.30;3.88;;;6.60;99.90;;;;;;5046344;28;20072;-67
2024/02/10 05:31:11;;;;;;;11.05;4.88;;;6.60;99.90;;;;;;5045610;28;20113;-68
2024/02/10 05:33:43;;;;;;;9.05;4.55;;;6.60;99.90;;;;;;5045385;28;20028;-68
2024/02/10 05:36:10;;;;;;;9.07;4.85;;;6.60;99.90;;;;;;5045949;28;20176;-68
2024/02/10 05:38:39;;;;;;;9.63;4.10;;;6.60;99.90;;;;;;5046422;28;20056;-67
2024/02/10 05:41:05;;;;;;;7.47;3.50;;;6.60;99.90;;;;;;5043393;28;20683;-67
2024/02/10 05:43:34;;;;;;;6.60;3.38;;;6.60;99.90;;;;;;5044534;28;20059;-68
2024/02/10 05:46:06;;;;;;;9.38;4.35;;;6.60;99.90;;;;;;5046064;28;20573;-68
2024/02/10 05:48:32;;;;;;;6.47;3.15;;;6.60;99.90;;;;;;5045400;28;20106;-69
2024/02/10 05:50:59;;;;;;;8.60;3.60;;;6.60;99.90;;;;;;5042121;28;20048;-68
2024/02/10 05:53:25;;;;;;;10.32;3.95;;;6.60;99.90;;;;;;5048020;28;20032;-68
2024/02/10 05:55:50;;;;;;;7.95;3.70;;;6.50;99.90;;;;;;5047484;28;20124;-67
2024/02/10 05:58:16;;;;;;;9.75;3.47;;;6.60;99.90;;;;;;5052016;28;20105;-68
2024/02/10 06:00:43;;;;;;;7.85;4.03;;;6.60;99.90;;;;;;5046076;28;20040;-68
2024/02/10 06:03:08;;;;;;;7.10;3.55;;;6.60;99.90;;;;;;5055526;28;20044;-68
2024/02/10 06:05:34;;;;;;;7.03;3.40;;;6.60;99.90;;;;;;5047057;28;20033;-67
2024/02/10 06:08:00;;;;;;;5.60;2.95;;;6.60;99.90;;;;;;5050809;28;20033;-68
2024/02/10 06:10:26;;;;;;;10.25;4.43;;;6.60;99.90;;;;;;5045764;28;20025;-68
2024/02/10 06:12:53;;;;;;;9.45;4.20;;;6.60;99.90;;;;;;5043213;28;20170;-69
2024/02/10 06:15:19;;;;;;;7.32;3.80;;;6.60;99.90;;;;;;5039694;28;20139;-68
2024/02/10 06:17:54;;;;;;;9.30;4.00;;;6.60;99.90;;;;;;5050583;28;20033;-68
2024/02/10 06:20:22;;;;;;;7.15;3.55;;;6.60;99.90;;;;;;5048751;28;20122;-69
2024/02/10 06:22:52;;;;;;;6.70;3.30;;;6.60;99.90;;;;;;5053803;28;20020;-68
2024/02/10 06:25:25;;;;;;;6.03;3.50;;;6.70;99.90;;;;;;5049253;28;20155;-68
2024/02/10 06:27:55;;;;;;;7.03;3.78;;;6.70;99.90;;;;;;5044387;28;20102;-68
2024/02/10 06:30:24;;;;;;;6.73;3.27;;;6.70;99.90;;;;;;5047752;28;20028;-67
2024/02/10 06:32:49;;;;;;;6.85;2.97;;;6.80;99.90;;;;;;5043928;28;20328;-68
2024/02/10 06:35:19;;;;;;;5.95;3.15;;;6.80;99.90;;;;;;5040102;28;20155;-68
2024/02/10 06:37:49;;;;;;;6.82;3.10;;;6.70;99.90;;;;;;5045920;28;20048;-68
2024/02/10 06:40:15;;;;;;;7.22;3.45;;;6.70;99.90;;;;;;5056222;28;20468;-68
2024/02/10 06:42:48;;;;;;;6.55;3.03;;;6.80;99.90;;;;;;5046034;28;20090;-68
2024/02/10 06:45:15;;;;;;;6.97;3.35;;;6.80;99.90;;;;;;5034946;28;20041;-68
2024/02/10 06:47:41;;;;;;;8.25;3.65;;;6.70;99.90;;;;;;5047018;28;20028;-68
2024/02/10 06:50:07;;;;;;;7.78;3.75;;;6.70;99.90;;;;;;5045848;28;20040;-69
2024/02/10 06:52:36;;;;;;;7.50;3.72;;;6.60;99.90;;;;;;5047670;28;20183;-67
2024/02/10 06:55:07;;;;;;;6.40;3.53;;;6.60;99.90;;;;;;5043362;28;20021;-68
2024/02/10 06:57:33;;;;;;;7.03;3.30;;;6.60;99.90;;;;;;5046521;28;20029;-68
2024/02/10 07:00:03;;;;;;;6.90;3.55;;;6.50;99.90;;;;;;5044959;28;20044;-68
2024/02/10 07:02:29;;;;;;;10.10;3.92;;;6.50;99.90;;;;;;5055556;28;20363;-68
2024/02/10 07:04:55;;;;;;;6.88;3.35;;;6.30;99.90;;;;;;5050552;28;20047;-68
2024/02/10 07:07:21;;;;;;;7.25;3.58;;;6.30;99.90;;;;;;5050254;28;20144;-68
2024/02/10 07:09:47;;;;;;;8.85;3.72;;;6.30;99.90;;;;;;5051801;28;20037;-70
2024/02/10 07:12:12;;;;;;;7.90;3.33;;;6.20;99.90;;;;;;5052230;28;20044;-69
2024/02/10 07:14:38;;;;;;;10.15;4.40;;;6.20;99.90;;;;;;5052126;28;20033;-70
2024/02/10 07:17:05;;;;;;;7.85;3.72;;;6.10;99.90;;;;;;5050405;28;20080;-68
2024/02/10 07:19:35;;;;;;;8.30;3.45;;;6.10;99.90;;;;;;5044709;28;20431;-69
2024/02/10 07:22:01;;;;;;;9.70;3.72;;;6.10;99.90;;;;;;5050697;28;20021;-68
2024/02/10 07:24:26;;;;;;;8.60;4.25;;;6.10;99.90;;;;;;5049359;28;20415;-68
2024/02/10 07:26:56;;;;;;;6.47;3.05;;;6.10;99.90;;;;;;5047114;28;20029;-68
2024/02/10 07:29:24;;;;;;;7.35;3.22;;;6.10;99.90;;;;;;5046053;28;20117;-68
2024/02/10 07:31:50;;;;;;;9.38;2.40;;;6.10;99.90;;;;;;5051576;28;20033;-68
2024/02/10 07:34:17;;;;;;;5.68;2.47;;;6.10;99.90;;;;;;5046939;28;20340;-67
2024/02/10 07:36:43;;;;;;;9.52;3.20;;;6.10;99.90;;;;;;5040719;28;20068;-68
2024/02/10 07:39:09;;;;;;;5.43;2.38;;;6.10;99.90;;;;;;5038114;28;20100;-68
2024/02/10 07:41:40;;;;;;;8.00;3.20;;;6.10;99.90;;;;;;5047946;28;22472;-68
2024/02/10 07:44:07;;;;;;;6.25;2.72;;;6.10;99.90;;;;;;5049356;28;20029;-68
2024/02/10 07:46:37;;;;;;;7.57;3.08;;;6.20;99.90;;;;;;5047556;28;20028;-68
2024/02/10 07:49:06;;;;;;;12.48;3.25;;;6.20;99.90;;;;;;5047433;28;22605;-68
2024/02/10 07:51:35;;;;;;;8.25;3.20;;;6.30;99.90;;;;;;5042458;28;20056;-67
2024/02/10 07:54:01;;;;;;;8.13;3.53;;;6.30;99.90;;;;;;5054820;28;20057;-67
2024/02/10 07:56:30;;;;;;;7.88;3.97;;;6.30;99.90;;;;;;5041211;28;20123;-67
2024/02/10 07:59:00;;;;;;;7.40;2.83;;;6.40;99.90;;;;;;5042628;28;20025;-67
2024/02/10 08:01:26;;;;;;;5.82;2.88;;;6.40;99.90;;;;;;5046707;28;20048;-68
2024/02/10 08:03:56;;;;;;;8.05;2.63;;;6.40;99.90;;;;;;5040126;28;20045;-68
2024/02/10 08:06:32;;;;;;;7.70;3.13;;;6.50;99.90;;;;;;5048458;28;20025;-67
2024/02/10 08:09:01;;;;;;;8.68;3.15;;;6.50;99.90;;;;;;5050476;28;20050;-71
2024/02/10 08:11:27;;;;;;;8.43;2.90;;;6.50;99.90;;;;;;5043772;28;20112;-71
2024/02/10 08:13:56;;;;;;;7.45;3.33;;;6.50;99.90;;;;;;5045869;28;20048;-71
2024/02/10 08:16:30;;;;;;;5.50;2.08;;;6.50;99.90;;;;;;5041703;28;20512;-71
2024/02/10 08:18:56;;;;;;;7.03;2.67;;;6.50;99.90;;;;;;5053028;28;20017;-71
2024/02/10 08:21:23;;;;;;;6.35;3.58;;;6.60;99.90;;;;;;5044870;28;20063;-71
2024/02/10 08:23:57;;;;;;;5.43;2.42;;;6.60;99.90;;;;;;5042875;28;20025;-71
2024/02/10 08:26:24;;;;;;;6.45;3.53;;;6.60;99.90;;;;;;5043735;28;20112;-71
2024/02/10 08:28:51;;;;;;;7.18;2.80;;;6.60;99.90;;;;;;5042407;28;20086;-71
2024/02/10 08:31:20;;;;;;;5.60;2.50;;;6.60;99.90;;;;;;5049899;28;20145;-71
2024/02/10 08:33:48;;;;;;;6.75;3.13;;;6.70;99.90;;;;;;5046703;28;20400;-71
2024/02/10 08:36:16;;;;;;;7.82;3.40;;;6.70;99.90;;;;;;5041953;28;20068;-71
2024/02/10 08:38:42;;;;;;;7.88;3.28;;;6.70;99.90;;;;;;5047846;28;20025;-71
2024/02/10 08:41:07;;;;;;;7.78;3.05;;;6.70;99.90;;;;;;5046400;28;20370;-71
2024/02/10 08:43:35;;;;;;;7.07;2.97;;;6.70;99.90;;;;;;5043371;28;20033;-72
2024/02/10 08:46:00;;;;;;;7.45;3.25;;;6.70;99.90;;;;;;5019353;28;20336;-72
2024/02/10 08:48:26;;;;;;;6.72;2.83;;;6.80;99.90;;;;;;5042870;28;20097;-72
2024/02/10 08:50:53;;;;;;;6.18;2.50;;;6.80;99.90;;;;;;5041981;28;20074;-72
2024/02/10 08:53:19;;;;;;;6.53;2.25;;;6.80;99.90;;;;;;5046934;28;20108;-72
2024/02/10 08:55:45;;;;;;;7.65;3.03;;;6.80;99.90;;;;;;5045229;28;20107;-72
2024/02/10 08:58:10;;;;;;;6.82;2.70;;;6.90;99.90;;;;;;5039779;28;20033;-70
2024/02/10 09:00:39;;;;;;;7.82;2.88;;;6.90;99.90;;;;;;5047122;28;20098;-71
2024/02/10 09:03:06;;;;;;;6.78;2.47;;;6.90;99.90;;;;;;5046426;28;20048;-70
2024/02/10 09:05:31;;;;;;;7.88;2.78;;;6.90;99.90;;;;;;5046975;28;20091;-69
2024/02/10 09:07:57;;;;;;;5.32;2.40;;;6.90;99.90;;;;;;5043520;28;20466;-68
2024/02/10 09:10:22;;;;;;;5.80;2.60;;;7.00;99.90;;;;;;5039068;28;20521;-67
2024/02/10 09:12:48;;;;;;;6.18;2.60;;;7.00;99.90;;;;;;5045411;28;20161;-69
2024/02/10 09:15:14;;;;;;;7.53;2.58;;;7.10;99.90;;;;;;5045130;28;20048;-68
2024/02/10 09:17:40;;;;;;;6.55;2.55;;;7.10;99.90;;;;;;5049637;28;20032;-68
2024/02/10 09:20:08;;;;;;;7.53;2.88;;;7.30;99.90;;;;;;5045873;28;20041;-68
2024/02/10 09:22:34;;;;;;;5.70;2.70;;;7.30;99.90;;;;;;5037158;28;20606;-67
2024/02/10 09:25:00;;;;;;;7.45;2.80;;;7.30;99.90;;;;;;5048338;28;20037;-68
2024/02/10 09:27:25;;;;;;;7.53;2.85;;;7.30;99.90;;;;;;5047524;28;20040;-68
2024/02/10 09:29:54;;;;;;;7.35;3.13;;;7.30;99.90;;;;;;5038623;28;20100;-67
2024/02/10 09:32:19;;;;;;;7.90;3.03;;;7.20;99.90;;;;;;5045314;28;20029;-68
2024/02/10 09:34:46;;;;;;;7.55;3.00;;;7.30;99.90;;;;;;5019069;28;20408;-68
2024/02/10 09:37:14;;;;;;;6.63;2.90;;;7.30;99.90;;;;;;5041791;28;20415;-67
2024/02/10 09:39:41;;;;;;;7.32;3.42;;;7.30;99.90;;;;;;5045977;28;20032;-68
2024/02/10 09:42:09;;;;;;;8.10;2.88;;;7.40;99.90;;;;;;5046238;28;20033;-68
2024/02/10 09:44:37;;;;;;;7.43;2.60;;;7.50;99.90;;;;;;5042966;28;20246;-68
2024/02/10 09:47:07;;;;;;;7.50;2.70;;;7.60;99.90;;;;;;5045472;28;20100;-68
2024/02/10 09:49:33;;;;;;;6.63;2.50;;;7.60;99.90;;;;;;5044480;28;20040;-68
2024/02/10 09:51:59;;;;;;;4.70;2.22;;;7.40;99.90;;;;;;5044436;28;20059;-68
2024/02/10 09:54:24;;;;;;;7.07;3.08;;;7.50;99.90;;;;;;5043970;28;20121;-69
2024/02/10 09:56:51;;;;;;;7.53;3.22;;;7.50;99.90;;;;;;5044250;28;20055;-68
2024/02/10 09:59:21;;;;;;;7.35;3.25;;;7.50;99.90;;;;;;5043522;28;20058;-69
2024/02/10 10:01:48;;;;;;;5.70;2.92;;;7.50;99.90;;;;;;5040889;28;20477;-69
2024/02/10 10:04:13;;;;;;;5.60;2.78;;;7.50;99.90;;;;;;5043252;28;20181;-68
2024/02/10 10:06:43;;;;;;;5.60;2.95;;;7.60;99.90;;;;;;5043212;28;20136;-68
2024/02/10 10:09:12;;;;;;;6.65;3.17;;;7.80;99.90;;;;;;5045726;28;20434;-68
2024/02/10 10:11:43;;;;;;;7.60;3.25;;;7.80;99.90;;;;;;5042315;28;20450;-68
2024/02/10 10:14:08;;;;;;;8.55;3.35;;;7.70;99.90;;;;;;5038416;28;20401;-67
2024/02/10 10:16:34;;;;;;;5.93;2.50;;;7.70;99.90;;;;;;5051855;28;20139;-68
2024/02/10 10:19:00;;;;;;;7.32;2.90;;;7.70;99.90;;;;;;5045337;28;20794;-68
2024/02/10 10:21:26;;;;;;;6.25;2.47;;;7.80;99.90;;;;;;5044064;28;20053;-68
2024/02/10 10:23:54;;;;;;;5.72;2.60;;;7.70;99.90;;;;;;5040242;28;20139;-69
2024/02/10 10:26:20;;;;;;;8.32;3.47;;;7.80;99.90;;;;;;5041609;28;20327;-69
2024/02/10 10:28:47;;;;;;;9.52;3.20;;;7.80;99.90;;;;;;5047856;28;20474;-68
2024/02/10 10:31:15;;;;;;;7.00;3.13;;;7.80;99.90;;;;;;5048353;28;20052;-68
2024/02/10 10:33:45;;;;;;;7.47;3.08;;;7.90;99.90;;;;;;5045039;28;20147;-68
2024/02/10 10:36:14;;;;;;;8.27;3.35;;;8.00;99.90;;;;;;5044068;28;20191;-69
2024/02/10 10:38:39;;;;;;;7.10;3.20;;;8.00;99.90;;;;;;5043971;28;20021;-69
2024/02/10 10:41:05;;;;;;;10.13;3.70;;;8.00;99.90;;;;;;5040914;28;20339;-68
2024/02/10 10:43:31;;;;;;;7.28;2.90;;;8.10;99.90;;;;;;5031577;28;20421;-68
2024/02/10 10:45:57;;;;;;;7.63;3.20;;;8.10;99.90;;;;;;5048414;28;20111;-69
2024/02/10 10:48:23;;;;;;;7.18;3.17;;;8.20;99.90;;;;;;5044382;28;20116;-68
2024/02/10 10:50:56;;;;;;;8.35;3.42;;;8.20;99.90;;;;;;5050428;28;20051;-68
2024/02/10 10:53:27;;;;;;;8.52;3.58;;;8.10;99.90;;;;;;5047920;28;20043;-68
2024/02/10 10:55:56;;;;;;;7.10;2.95;;;8.30;99.90;;;;;;5044926;28;20044;-68
2024/02/10 10:58:26;;;;;;;7.78;3.33;;;8.50;99.90;;;;;;5047467;28;20029;-68
2024/02/10 11:00:52;;;;;;;8.02;3.83;;;8.50;99.90;;;;;;5048817;28;20037;-68
2024/02/10 11:03:19;;;;;;;7.10;3.42;;;8.60;99.90;;;;;;5029581;28;20037;-68
2024/02/10 11:05:49;;;;;;;8.93;2.92;;;8.80;99.90;;;;;;5045622;28;20099;-68
2024/02/10 11:08:26;;;;;;;6.03;3.03;;;8.80;99.90;;;;;;5044538;28;20033;-68
2024/02/10 11:11:03;;;;;;;6.88;3.15;;;8.90;99.90;;;;;;5050142;28;20045;-68
2024/02/10 11:13:29;;;;;;;7.38;3.40;;;8.80;99.90;;;;;;5048367;28;20029;-68
2024/02/10 11:16:14;;;;;;;6.95;3.10;;;8.80;99.90;;;;;;5028533;28;20053;-68
2024/02/10 11:19:04;;;;;;;7.47;3.33;;;8.90;99.90;;;;;;5043530;28;20085;-68
2024/02/10 11:21:31;;;;;;;8.07;3.25;;;9.10;99.90;;;;;;5043363;28;20466;-68
2024/02/10 11:24:10;;;;;;;6.50;3.00;;;9.20;99.90;;;;;;5043837;28;20136;-68
2024/02/10 11:26:39;;;;;;;7.30;2.92;;;9.30;99.90;;;;;;5027044;28;20048;-68
2024/02/10 11:29:06;;;;;;;6.72;2.90;;;9.60;99.90;;;;;;5047267;28;20385;-68
2024/02/10 11:31:42;;;;;;;6.30;3.63;;;9.50;99.90;;;;;;5046182;28;20055;-68
2024/02/10 11:34:14;;;;;;;6.45;2.83;;;9.50;99.90;;;;;;5046710;28;20449;-68
2024/02/10 11:36:48;;;;;;;5.97;3.05;;;9.60;99.90;;;;;;5045427;28;20257;-68
2024/02/10 11:39:14;;;;;;;5.60;2.50;;;9.50;99.90;;;;;;5042764;28;20328;-68
2024/02/10 11:41:40;;;;;;;6.55;3.15;;;9.50;99.90;;;;;;5044963;28;20101;-68
2024/02/10 11:44:05;;;;;;;5.80;2.83;;;9.60;99.90;;;;;;5054302;28;20395;-71
2024/02/10 11:46:31;;;;;;;5.93;2.75;;;9.60;99.90;;;;;;5051124;28;20055;-71
2024/02/10 11:48:59;;;;;;;7.30;3.35;;;9.70;99.90;;;;;;5048571;28;20151;-71
2024/02/10 11:51:28;;;;;;;6.70;3.00;;;9.60;99.90;;;;;;5044037;28;20021;-68
2024/02/10 11:53:57;;;;;;;7.07;2.97;;;9.60;99.90;;;;;;5045023;28;20043;-69
2024/02/10 11:56:25;;;;;;;5.53;2.85;;;9.50;99.90;;;;;;5046508;28;20051;-68
2024/02/10 11:58:50;;;;;;;6.75;2.83;;;9.60;99.90;;;;;;5046011;28;20338;-68
2024/02/10 12:01:16;;;;;;;6.65;3.10;;;9.50;99.90;;;;;;5045622;28;20055;-71
2024/02/10 12:03:42;;;;;;;7.10;3.15;;;9.30;99.90;;;;;;5049037;28;20584;-67
2024/02/10 12:06:09;;;;;;;7.50;2.95;;;9.60;99.90;;;;;;5048955;28;20040;-69
2024/02/10 12:08:36;;;;;;;5.28;2.88;;;9.60;99.90;;;;;;5044403;28;20119;-67
2024/02/10 12:11:03;;;;;;;5.93;2.70;;;9.60;99.90;;;;;;5044801;28;20071;-69
2024/02/10 12:13:29;;;;;;;7.47;3.40;;;9.70;99.90;;;;;;5045118;28;20051;-68
2024/02/10 12:16:01;;;;;;;6.68;3.05;;;9.60;99.90;;;;;;5045027;28;20475;-68
2024/02/10 12:18:29;;;;;;;6.40;3.10;;;9.60;99.90;;;;;;5049043;28;20124;-69
2024/02/10 12:20:54;;;;;;;5.13;2.80;;;9.60;99.90;;;;;;5052495;28;20146;-68
2024/02/10 12:23:20;;;;;;;5.35;2.47;;;9.40;99.90;;;;;;5045801;28;20475;-68
2024/02/10 12:25:45;;;;;;;5.35;2.83;;;9.60;99.90;;;;;;5048155;28;20028;-69
2024/02/10 12:28:11;;;;;;;6.50;3.35;;;9.60;99.90;;;;;;5030209;28;20032;-68
2024/02/10 12:30:36;;;;;;;7.15;3.10;;;9.60;99.90;;;;;;5041002;28;20044;-68
2024/02/10 12:33:02;;;;;;;5.30;2.72;;;9.70;99.90;;;;;;5037208;28;20029;-68
2024/02/10 12:35:27;;;;;;;4.95;2.60;;;9.60;99.90;;;;;;5040413;28;20114;-69
2024/02/10 12:37:53;;;;;;;6.05;2.92;;;9.40;99.90;;;;;;5050142;28;20033;-72
2024/02/10 12:40:20;;;;;;;5.38;2.78;;;9.40;99.90;;;;;;5045951;28;20037;-71
2024/02/10 12:42:46;;;;;;;5.78;2.92;;;9.40;99.90;;;;;;5047432;28;20128;-71
2024/02/10 12:45:14;;;;;;;5.60;3.00;;;9.50;99.90;;;;;;5046492;28;20462;-71
2024/02/10 12:47:42;;;;;;;6.78;3.15;;;9.50;99.90;;;;;;5046685;28;20025;-70
2024/02/10 12:50:08;;;;;;;6.63;3.22;;;9.50;99.90;;;;;;5047302;28;20053;-71
2024/02/10 12:52:47;;;;;;;8.43;3.70;;;9.40;99.90;;;;;;5044226;28;20149;-71
2024/02/10 12:55:15;;;;;;;6.50;2.85;;;9.40;99.90;;;;;;5050376;28;20029;-71